sensor_id;sensor_type;location;lat;lon;timestamp;P1;durP1;ratioP1;P2;durP2;ratioP2
32748;SDS011;19119;52.474;13.710;2023-06-22T00:00:48;21.48;;;15.30;;
32748;SDS011;19119;52.474;13.710;2023-06-22T00:03:14;19.83;;;15.10;;
32748;SDS011;19119;52.474;13.710;2023-06-22T00:05:40;22.70;;;14.85;;
32748;SDS011;19119;52.474;13.710;2023-06-22T00:08:05;22.13;;;16.08;;
32748;SDS011;19119;52.474;13.710;2023-06-22T00:10:31;17.30;;;14.57;;
32748;SDS011;19119;52.474;13.710;2023-06-22T00:12:56;20.55;;;15.77;;
32748;SDS011;19119;52.474;13.710;2023-06-22T00:15:22;19.52;;;15.77;;
32748;SDS011;19119;52.474;13.710;2023-06-22T00:17:49;20.63;;;15.57;;
32748;SDS011;19119;52.474;13.710;2023-06-22T00:20:14;18.35;;;15.10;;
32748;SDS011;19119;52.474;13.710;2023-06-22T00:22:41;22.55;;;16.25;;
32748;SDS011;19119;52.474;13.710;2023-06-22T00:25:08;22.25;;;15.85;;
32748;SDS011;19119;52.474;13.710;2023-06-22T00:27:34;21.98;;;16.15;;
32748;SDS011;19119;52.474;13.710;2023-06-22T00:30:00;20.48;;;16.27;;
32748;SDS011;19119;52.474;13.710;2023-06-22T00:32:25;20.95;;;17.02;;
32748;SDS011;19119;52.474;13.710;2023-06-22T00:34:50;19.17;;;15.75;;
32748;SDS011;19119;52.474;13.710;2023-06-22T00:37:17;19.95;;;15.68;;
32748;SDS011;19119;52.474;13.710;2023-06-22T00:39:43;23.17;;;16.40;;
32748;SDS011;19119;52.474;13.710;2023-06-22T00:42:09;20.70;;;16.23;;
32748;SDS011;19119;52.474;13.710;2023-06-22T00:44:35;22.63;;;16.13;;
32748;SDS011;19119;52.474;13.710;2023-06-22T00:47:01;20.95;;;16.40;;
32748;SDS011;19119;52.474;13.710;2023-06-22T00:49:28;22.00;;;16.02;;
32748;SDS011;19119;52.474;13.710;2023-06-22T00:51:54;21.23;;;17.27;;
32748;SDS011;19119;52.474;13.710;2023-06-22T00:54:20;24.88;;;15.85;;
32748;SDS011;19119;52.474;13.710;2023-06-22T00:56:50;18.40;;;15.18;;
32748;SDS011;19119;52.474;13.710;2023-06-22T00:59:22;22.20;;;17.15;;
32748;SDS011;19119;52.474;13.710;2023-06-22T01:01:48;21.27;;;16.85;;
32748;SDS011;19119;52.474;13.710;2023-06-22T01:04:14;23.50;;;16.65;;
32748;SDS011;19119;52.474;13.710;2023-06-22T01:06:44;20.30;;;16.42;;
32748;SDS011;19119;52.474;13.710;2023-06-22T01:09:18;21.50;;;15.93;;
32748;SDS011;19119;52.474;13.710;2023-06-22T01:11:54;30.10;;;17.60;;
32748;SDS011;19119;52.474;13.710;2023-06-22T01:14:28;21.70;;;15.35;;
32748;SDS011;19119;52.474;13.710;2023-06-22T01:17:07;21.52;;;15.82;;
32748;SDS011;19119;52.474;13.710;2023-06-22T01:19:37;22.52;;;16.17;;
32748;SDS011;19119;52.474;13.710;2023-06-22T01:22:09;20.88;;;15.55;;
32748;SDS011;19119;52.474;13.710;2023-06-22T01:25:03;20.75;;;15.18;;
32748;SDS011;19119;52.474;13.710;2023-06-22T01:30:34;21.77;;;15.70;;
32748;SDS011;19119;52.474;13.710;2023-06-22T01:32:59;19.70;;;15.45;;
32748;SDS011;19119;52.474;13.710;2023-06-22T01:35:27;19.85;;;15.23;;
32748;SDS011;19119;52.474;13.710;2023-06-22T01:37:54;21.45;;;16.85;;
32748;SDS011;19119;52.474;13.710;2023-06-22T01:40:20;20.67;;;16.40;;
32748;SDS011;19119;52.474;13.710;2023-06-22T01:42:46;18.02;;;15.00;;
32748;SDS011;19119;52.474;13.710;2023-06-22T01:45:12;25.83;;;15.13;;
32748;SDS011;19119;52.474;13.710;2023-06-22T01:47:38;22.92;;;16.00;;
32748;SDS011;19119;52.474;13.710;2023-06-22T01:50:04;23.38;;;16.95;;
32748;SDS011;19119;52.474;13.710;2023-06-22T01:52:30;28.75;;;17.08;;
32748;SDS011;19119;52.474;13.710;2023-06-22T01:54:58;21.42;;;15.82;;
32748;SDS011;19119;52.474;13.710;2023-06-22T01:57:24;21.17;;;15.75;;
32748;SDS011;19119;52.474;13.710;2023-06-22T02:00:23;20.63;;;14.77;;
32748;SDS011;19119;52.474;13.710;2023-06-22T02:02:52;23.58;;;15.88;;
32748;SDS011;19119;52.474;13.710;2023-06-22T02:05:24;19.95;;;15.82;;
32748;SDS011;19119;52.474;13.710;2023-06-22T02:08:00;19.40;;;15.55;;
32748;SDS011;19119;52.474;13.710;2023-06-22T02:10:31;21.60;;;15.50;;
32748;SDS011;19119;52.474;13.710;2023-06-22T02:13:01;21.98;;;15.88;;
32748;SDS011;19119;52.474;13.710;2023-06-22T02:15:31;22.95;;;16.65;;
32748;SDS011;19119;52.474;13.710;2023-06-22T02:17:57;25.75;;;15.68;;
32748;SDS011;19119;52.474;13.710;2023-06-22T02:20:23;19.55;;;15.60;;
32748;SDS011;19119;52.474;13.710;2023-06-22T02:22:49;25.45;;;16.00;;
32748;SDS011;19119;52.474;13.710;2023-06-22T02:25:15;21.88;;;16.25;;
32748;SDS011;19119;52.474;13.710;2023-06-22T02:27:40;22.98;;;17.20;;
32748;SDS011;19119;52.474;13.710;2023-06-22T02:30:07;21.23;;;15.43;;
32748;SDS011;19119;52.474;13.710;2023-06-22T02:32:34;22.08;;;15.82;;
32748;SDS011;19119;52.474;13.710;2023-06-22T02:35:00;23.15;;;16.95;;
32748;SDS011;19119;52.474;13.710;2023-06-22T02:37:29;23.38;;;16.27;;
32748;SDS011;19119;52.474;13.710;2023-06-22T02:39:54;23.30;;;15.68;;
32748;SDS011;19119;52.474;13.710;2023-06-22T02:42:20;21.38;;;15.85;;
32748;SDS011;19119;52.474;13.710;2023-06-22T02:44:46;21.23;;;15.43;;
32748;SDS011;19119;52.474;13.710;2023-06-22T02:47:12;20.52;;;16.33;;
32748;SDS011;19119;52.474;13.710;2023-06-22T02:49:37;20.45;;;15.95;;
32748;SDS011;19119;52.474;13.710;2023-06-22T02:52:03;22.05;;;16.70;;
32748;SDS011;19119;52.474;13.710;2023-06-22T02:54:29;20.75;;;16.77;;
32748;SDS011;19119;52.474;13.710;2023-06-22T02:56:54;25.98;;;17.30;;
32748;SDS011;19119;52.474;13.710;2023-06-22T02:59:19;21.10;;;16.42;;
32748;SDS011;19119;52.474;13.710;2023-06-22T03:01:48;21.50;;;16.75;;
32748;SDS011;19119;52.474;13.710;2023-06-22T03:04:15;20.65;;;16.15;;
32748;SDS011;19119;52.474;13.710;2023-06-22T03:06:40;22.35;;;15.88;;
32748;SDS011;19119;52.474;13.710;2023-06-22T03:09:06;23.90;;;16.08;;
32748;SDS011;19119;52.474;13.710;2023-06-22T03:11:32;24.77;;;16.60;;
32748;SDS011;19119;52.474;13.710;2023-06-22T03:13:58;22.15;;;17.92;;
32748;SDS011;19119;52.474;13.710;2023-06-22T03:16:24;24.00;;;18.40;;
32748;SDS011;19119;52.474;13.710;2023-06-22T03:18:50;25.80;;;17.13;;
32748;SDS011;19119;52.474;13.710;2023-06-22T03:21:15;25.65;;;17.63;;
32748;SDS011;19119;52.474;13.710;2023-06-22T03:23:41;23.77;;;16.83;;
32748;SDS011;19119;52.474;13.710;2023-06-22T03:26:10;22.75;;;17.42;;
32748;SDS011;19119;52.474;13.710;2023-06-22T03:28:37;24.63;;;18.35;;
32748;SDS011;19119;52.474;13.710;2023-06-22T03:31:02;23.70;;;17.58;;
32748;SDS011;19119;52.474;13.710;2023-06-22T03:33:28;22.25;;;17.42;;
32748;SDS011;19119;52.474;13.710;2023-06-22T03:35:54;26.70;;;17.42;;
32748;SDS011;19119;52.474;13.710;2023-06-22T03:38:20;24.45;;;17.63;;
32748;SDS011;19119;52.474;13.710;2023-06-22T03:40:45;28.85;;;18.52;;
32748;SDS011;19119;52.474;13.710;2023-06-22T03:43:11;31.45;;;17.88;;
32748;SDS011;19119;52.474;13.710;2023-06-22T03:45:36;31.00;;;18.30;;
32748;SDS011;19119;52.474;13.710;2023-06-22T03:48:05;30.38;;;18.27;;
32748;SDS011;19119;52.474;13.710;2023-06-22T03:50:30;28.30;;;17.35;;
32748;SDS011;19119;52.474;13.710;2023-06-22T03:52:57;26.48;;;17.35;;
32748;SDS011;19119;52.474;13.710;2023-06-22T03:55:22;28.80;;;18.25;;
32748;SDS011;19119;52.474;13.710;2023-06-22T03:57:48;25.98;;;18.27;;
32748;SDS011;19119;52.474;13.710;2023-06-22T04:00:14;27.40;;;18.45;;
32748;SDS011;19119;52.474;13.710;2023-06-22T04:02:40;26.17;;;18.52;;
32748;SDS011;19119;52.474;13.710;2023-06-22T04:05:08;32.40;;;19.80;;
32748;SDS011;19119;52.474;13.710;2023-06-22T04:07:34;32.67;;;19.10;;
32748;SDS011;19119;52.474;13.710;2023-06-22T04:10:02;24.95;;;17.63;;
32748;SDS011;19119;52.474;13.710;2023-06-22T04:12:28;27.23;;;17.42;;
32748;SDS011;19119;52.474;13.710;2023-06-22T04:14:53;25.60;;;16.30;;
32748;SDS011;19119;52.474;13.710;2023-06-22T04:17:22;25.73;;;15.77;;
32748;SDS011;19119;52.474;13.710;2023-06-22T04:19:49;23.48;;;16.25;;
32748;SDS011;19119;52.474;13.710;2023-06-22T04:22:15;21.00;;;13.95;;
32748;SDS011;19119;52.474;13.710;2023-06-22T04:24:41;19.30;;;12.85;;
32748;SDS011;19119;52.474;13.710;2023-06-22T04:27:06;20.13;;;13.80;;
32748;SDS011;19119;52.474;13.710;2023-06-22T04:29:31;18.20;;;12.27;;
32748;SDS011;19119;52.474;13.710;2023-06-22T04:31:57;18.55;;;12.98;;
32748;SDS011;19119;52.474;13.710;2023-06-22T04:34:24;22.33;;;13.07;;
32748;SDS011;19119;52.474;13.710;2023-06-22T04:36:51;14.55;;;11.00;;
32748;SDS011;19119;52.474;13.710;2023-06-22T04:39:17;19.58;;;11.23;;
32748;SDS011;19119;52.474;13.710;2023-06-22T04:41:43;17.00;;;10.98;;
32748;SDS011;19119;52.474;13.710;2023-06-22T04:46:38;14.45;;;10.63;;
32748;SDS011;19119;52.474;13.710;2023-06-22T04:49:05;16.70;;;8.95;;
32748;SDS011;19119;52.474;13.710;2023-06-22T04:51:41;16.50;;;9.48;;
32748;SDS011;19119;52.474;13.710;2023-06-22T04:54:08;11.80;;;9.27;;
32748;SDS011;19119;52.474;13.710;2023-06-22T04:56:34;16.85;;;9.65;;
32748;SDS011;19119;52.474;13.710;2023-06-22T04:59:00;13.20;;;8.40;;
32748;SDS011;19119;52.474;13.710;2023-06-22T05:01:26;14.73;;;8.32;;
32748;SDS011;19119;52.474;13.710;2023-06-22T05:03:51;10.18;;;7.68;;
32748;SDS011;19119;52.474;13.710;2023-06-22T05:06:21;10.57;;;8.15;;
32748;SDS011;19119;52.474;13.710;2023-06-22T05:08:52;14.05;;;7.57;;
32748;SDS011;19119;52.474;13.710;2023-06-22T05:11:22;13.90;;;8.23;;
32748;SDS011;19119;52.474;13.710;2023-06-22T05:13:51;11.80;;;7.30;;
32748;SDS011;19119;52.474;13.710;2023-06-22T05:16:17;10.90;;;7.35;;
32748;SDS011;19119;52.474;13.710;2023-06-22T05:18:42;10.45;;;7.40;;
32748;SDS011;19119;52.474;13.710;2023-06-22T05:21:08;10.45;;;6.95;;
32748;SDS011;19119;52.474;13.710;2023-06-22T05:23:34;9.82;;;6.93;;
32748;SDS011;19119;52.474;13.710;2023-06-22T05:25:59;15.15;;;6.43;;
32748;SDS011;19119;52.474;13.710;2023-06-22T05:28:25;11.95;;;6.85;;
32748;SDS011;19119;52.474;13.710;2023-06-22T05:30:50;8.60;;;6.50;;
32748;SDS011;19119;52.474;13.710;2023-06-22T05:33:16;10.13;;;5.40;;
32748;SDS011;19119;52.474;13.710;2023-06-22T05:35:41;13.35;;;6.72;;
32748;SDS011;19119;52.474;13.710;2023-06-22T05:38:07;7.80;;;5.35;;
32748;SDS011;19119;52.474;13.710;2023-06-22T05:40:32;9.20;;;4.88;;
32748;SDS011;19119;52.474;13.710;2023-06-22T05:42:58;5.75;;;4.40;;
32748;SDS011;19119;52.474;13.710;2023-06-22T05:45:26;7.72;;;4.65;;
32748;SDS011;19119;52.474;13.710;2023-06-22T05:47:51;6.63;;;5.22;;
32748;SDS011;19119;52.474;13.710;2023-06-22T05:50:17;5.40;;;4.00;;
32748;SDS011;19119;52.474;13.710;2023-06-22T05:52:43;5.78;;;3.90;;
32748;SDS011;19119;52.474;13.710;2023-06-22T05:55:09;6.95;;;4.15;;
32748;SDS011;19119;52.474;13.710;2023-06-22T05:57:41;7.13;;;4.30;;
32748;SDS011;19119;52.474;13.710;2023-06-22T06:00:07;8.63;;;4.20;;
32748;SDS011;19119;52.474;13.710;2023-06-22T06:02:35;7.03;;;4.72;;
32748;SDS011;19119;52.474;13.710;2023-06-22T06:05:01;5.88;;;4.43;;
32748;SDS011;19119;52.474;13.710;2023-06-22T06:07:27;7.93;;;4.97;;
32748;SDS011;19119;52.474;13.710;2023-06-22T06:09:53;6.55;;;4.85;;
32748;SDS011;19119;52.474;13.710;2023-06-22T06:12:18;6.07;;;4.30;;
32748;SDS011;19119;52.474;13.710;2023-06-22T06:14:44;6.28;;;4.18;;
32748;SDS011;19119;52.474;13.710;2023-06-22T06:17:09;8.35;;;4.60;;
32748;SDS011;19119;52.474;13.710;2023-06-22T06:19:35;6.38;;;4.43;;
32748;SDS011;19119;52.474;13.710;2023-06-22T06:22:00;5.53;;;4.20;;
32748;SDS011;19119;52.474;13.710;2023-06-22T06:24:26;7.47;;;4.50;;
32748;SDS011;19119;52.474;13.710;2023-06-22T06:26:51;6.22;;;4.38;;
32748;SDS011;19119;52.474;13.710;2023-06-22T06:29:17;5.28;;;3.70;;
32748;SDS011;19119;52.474;13.710;2023-06-22T06:31:44;7.25;;;4.07;;
32748;SDS011;19119;52.474;13.710;2023-06-22T06:34:09;6.68;;;3.67;;
32748;SDS011;19119;52.474;13.710;2023-06-22T06:36:35;4.95;;;4.15;;
32748;SDS011;19119;52.474;13.710;2023-06-22T06:39:00;7.43;;;4.00;;
32748;SDS011;19119;52.474;13.710;2023-06-22T06:41:26;8.68;;;3.95;;
32748;SDS011;19119;52.474;13.710;2023-06-22T06:43:52;6.93;;;3.70;;
32748;SDS011;19119;52.474;13.710;2023-06-22T06:46:17;5.65;;;3.60;;
32748;SDS011;19119;52.474;13.710;2023-06-22T06:48:44;6.93;;;3.70;;
32748;SDS011;19119;52.474;13.710;2023-06-22T06:51:12;7.53;;;3.50;;
32748;SDS011;19119;52.474;13.710;2023-06-22T06:53:38;6.00;;;3.92;;
32748;SDS011;19119;52.474;13.710;2023-06-22T06:56:03;6.00;;;3.45;;
32748;SDS011;19119;52.474;13.710;2023-06-22T06:58:30;4.13;;;3.60;;
32748;SDS011;19119;52.474;13.710;2023-06-22T07:00:56;4.80;;;3.60;;
32748;SDS011;19119;52.474;13.710;2023-06-22T07:03:21;5.05;;;3.17;;
32748;SDS011;19119;52.474;13.710;2023-06-22T07:05:49;5.43;;;3.97;;
32748;SDS011;19119;52.474;13.710;2023-06-22T07:08:15;20.38;;;4.15;;
32748;SDS011;19119;52.474;13.710;2023-06-22T07:10:40;5.07;;;3.10;;
32748;SDS011;19119;52.474;13.710;2023-06-22T07:13:06;5.22;;;3.47;;
32748;SDS011;19119;52.474;13.710;2023-06-22T07:15:31;5.82;;;3.42;;
32748;SDS011;19119;52.474;13.710;2023-06-22T07:17:57;5.82;;;3.08;;
32748;SDS011;19119;52.474;13.710;2023-06-22T07:20:22;11.75;;;3.85;;
32748;SDS011;19119;52.474;13.710;2023-06-22T07:22:48;3.72;;;3.10;;
32748;SDS011;19119;52.474;13.710;2023-06-22T07:25:13;7.10;;;3.35;;
32748;SDS011;19119;52.474;13.710;2023-06-22T07:27:40;4.72;;;3.35;;
32748;SDS011;19119;52.474;13.710;2023-06-22T07:30:10;6.30;;;3.88;;
32748;SDS011;19119;52.474;13.710;2023-06-22T07:32:36;6.53;;;3.67;;
32748;SDS011;19119;52.474;13.710;2023-06-22T07:35:02;4.38;;;3.10;;
32748;SDS011;19119;52.474;13.710;2023-06-22T07:37:28;5.03;;;3.30;;
32748;SDS011;19119;52.474;13.710;2023-06-22T07:39:54;4.65;;;3.03;;
32748;SDS011;19119;52.474;13.710;2023-06-22T07:42:23;4.63;;;3.20;;
32748;SDS011;19119;52.474;13.710;2023-06-22T07:44:57;8.38;;;3.10;;
32748;SDS011;19119;52.474;13.710;2023-06-22T07:47:23;4.47;;;3.03;;
32748;SDS011;19119;52.474;13.710;2023-06-22T07:49:51;5.78;;;3.25;;
32748;SDS011;19119;52.474;13.710;2023-06-22T07:52:19;7.30;;;2.90;;
32748;SDS011;19119;52.474;13.710;2023-06-22T07:54:45;7.45;;;3.38;;
32748;SDS011;19119;52.474;13.710;2023-06-22T07:57:11;6.25;;;2.58;;
32748;SDS011;19119;52.474;13.710;2023-06-22T07:59:37;5.28;;;3.08;;
32748;SDS011;19119;52.474;13.710;2023-06-22T08:02:02;6.10;;;2.53;;
32748;SDS011;19119;52.474;13.710;2023-06-22T08:04:29;4.95;;;2.67;;
32748;SDS011;19119;52.474;13.710;2023-06-22T08:06:56;7.45;;;2.80;;
32748;SDS011;19119;52.474;13.710;2023-06-22T08:09:22;4.68;;;2.80;;
32748;SDS011;19119;52.474;13.710;2023-06-22T08:11:47;7.40;;;2.83;;
32748;SDS011;19119;52.474;13.710;2023-06-22T08:14:14;5.03;;;2.88;;
32748;SDS011;19119;52.474;13.710;2023-06-22T08:16:40;5.75;;;2.40;;
32748;SDS011;19119;52.474;13.710;2023-06-22T08:19:06;3.95;;;2.35;;
32748;SDS011;19119;52.474;13.710;2023-06-22T08:21:32;4.65;;;2.95;;
32748;SDS011;19119;52.474;13.710;2023-06-22T08:23:58;5.75;;;2.75;;
32748;SDS011;19119;52.474;13.710;2023-06-22T08:26:23;5.13;;;3.47;;
32748;SDS011;19119;52.474;13.710;2023-06-22T08:28:49;4.47;;;2.70;;
32748;SDS011;19119;52.474;13.710;2023-06-22T08:31:14;5.63;;;2.47;;
32748;SDS011;19119;52.474;13.710;2023-06-22T08:33:40;4.28;;;2.88;;
32748;SDS011;19119;52.474;13.710;2023-06-22T08:36:06;5.32;;;2.72;;
32748;SDS011;19119;52.474;13.710;2023-06-22T08:38:33;5.80;;;3.35;;
32748;SDS011;19119;52.474;13.710;2023-06-22T08:40:58;4.65;;;2.65;;
32748;SDS011;19119;52.474;13.710;2023-06-22T08:43:25;5.18;;;2.65;;
32748;SDS011;19119;52.474;13.710;2023-06-22T08:45:51;4.47;;;3.20;;
32748;SDS011;19119;52.474;13.710;2023-06-22T08:48:16;6.65;;;2.53;;
32748;SDS011;19119;52.474;13.710;2023-06-22T08:50:42;5.00;;;2.80;;
32748;SDS011;19119;52.474;13.710;2023-06-22T08:53:07;5.60;;;2.70;;
32748;SDS011;19119;52.474;13.710;2023-06-22T08:55:33;4.53;;;2.30;;
32748;SDS011;19119;52.474;13.710;2023-06-22T08:57:58;6.45;;;2.53;;
32748;SDS011;19119;52.474;13.710;2023-06-22T09:00:24;5.03;;;2.90;;
32748;SDS011;19119;52.474;13.710;2023-06-22T09:02:50;7.05;;;2.78;;
32748;SDS011;19119;52.474;13.710;2023-06-22T09:05:15;6.40;;;3.13;;
32748;SDS011;19119;52.474;13.710;2023-06-22T09:07:41;5.05;;;2.67;;
32748;SDS011;19119;52.474;13.710;2023-06-22T09:10:07;4.82;;;2.65;;
32748;SDS011;19119;52.474;13.710;2023-06-22T09:12:33;4.28;;;3.13;;
32748;SDS011;19119;52.474;13.710;2023-06-22T09:15:00;3.85;;;2.67;;
32748;SDS011;19119;52.474;13.710;2023-06-22T09:17:26;4.10;;;2.85;;
32748;SDS011;19119;52.474;13.710;2023-06-22T09:19:52;4.18;;;2.50;;
32748;SDS011;19119;52.474;13.710;2023-06-22T09:22:17;5.32;;;2.65;;
32748;SDS011;19119;52.474;13.710;2023-06-22T09:24:43;6.57;;;2.70;;
32748;SDS011;19119;52.474;13.710;2023-06-22T09:27:08;3.35;;;2.38;;
32748;SDS011;19119;52.474;13.710;2023-06-22T09:29:34;3.25;;;2.15;;
32748;SDS011;19119;52.474;13.710;2023-06-22T09:31:59;6.60;;;2.47;;
32748;SDS011;19119;52.474;13.710;2023-06-22T09:34:25;6.20;;;2.38;;
32748;SDS011;19119;52.474;13.710;2023-06-22T09:36:51;5.97;;;2.05;;
32748;SDS011;19119;52.474;13.710;2023-06-22T09:39:17;4.00;;;2.28;;
32748;SDS011;19119;52.474;13.710;2023-06-22T09:41:43;4.20;;;2.42;;
32748;SDS011;19119;52.474;13.710;2023-06-22T09:44:09;8.57;;;2.67;;
32748;SDS011;19119;52.474;13.710;2023-06-22T09:46:34;11.48;;;2.47;;
32748;SDS011;19119;52.474;13.710;2023-06-22T09:49:00;3.40;;;2.30;;
32748;SDS011;19119;52.474;13.710;2023-06-22T09:51:25;4.13;;;2.33;;
32748;SDS011;19119;52.474;13.710;2023-06-22T09:53:51;4.20;;;2.15;;
32748;SDS011;19119;52.474;13.710;2023-06-22T09:56:18;3.55;;;2.25;;
32748;SDS011;19119;52.474;13.710;2023-06-22T09:58:44;4.53;;;2.40;;
32748;SDS011;19119;52.474;13.710;2023-06-22T10:01:11;10.52;;;2.70;;
32748;SDS011;19119;52.474;13.710;2023-06-22T10:03:37;5.70;;;2.08;;
32748;SDS011;19119;52.474;13.710;2023-06-22T10:06:02;3.63;;;2.35;;
32748;SDS011;19119;52.474;13.710;2023-06-22T10:08:28;4.00;;;2.25;;
32748;SDS011;19119;52.474;13.710;2023-06-22T10:10:54;3.45;;;2.50;;
32748;SDS011;19119;52.474;13.710;2023-06-22T10:13:20;4.00;;;2.08;;
32748;SDS011;19119;52.474;13.710;2023-06-22T10:15:46;5.97;;;2.42;;
32748;SDS011;19119;52.474;13.710;2023-06-22T10:18:15;2.85;;;2.10;;
32748;SDS011;19119;52.474;13.710;2023-06-22T10:20:41;3.83;;;2.17;;
32748;SDS011;19119;52.474;13.710;2023-06-22T10:23:07;4.13;;;2.10;;
32748;SDS011;19119;52.474;13.710;2023-06-22T10:25:32;3.00;;;1.90;;
32748;SDS011;19119;52.474;13.710;2023-06-22T10:27:58;3.53;;;2.28;;
32748;SDS011;19119;52.474;13.710;2023-06-22T10:30:23;4.78;;;2.20;;
32748;SDS011;19119;52.474;13.710;2023-06-22T10:32:49;3.10;;;1.98;;
32748;SDS011;19119;52.474;13.710;2023-06-22T10:35:14;3.10;;;2.03;;
32748;SDS011;19119;52.474;13.710;2023-06-22T10:37:41;3.55;;;2.42;;
32748;SDS011;19119;52.474;13.710;2023-06-22T10:40:08;3.10;;;1.92;;
32748;SDS011;19119;52.474;13.710;2023-06-22T10:42:34;26.65;;;2.50;;
32748;SDS011;19119;52.474;13.710;2023-06-22T10:45:00;3.25;;;2.20;;
32748;SDS011;19119;52.474;13.710;2023-06-22T10:47:25;4.00;;;2.20;;
32748;SDS011;19119;52.474;13.710;2023-06-22T10:49:51;3.78;;;2.13;;
32748;SDS011;19119;52.474;13.710;2023-06-22T10:52:16;6.13;;;2.20;;
32748;SDS011;19119;52.474;13.710;2023-06-22T10:54:42;3.33;;;2.22;;
32748;SDS011;19119;52.474;13.710;2023-06-22T10:57:07;3.45;;;1.75;;
32748;SDS011;19119;52.474;13.710;2023-06-22T10:59:32;5.40;;;2.45;;
32748;SDS011;19119;52.474;13.710;2023-06-22T11:01:58;4.85;;;2.55;;
32748;SDS011;19119;52.474;13.710;2023-06-22T11:04:24;5.53;;;2.42;;
32748;SDS011;19119;52.474;13.710;2023-06-22T11:06:49;5.03;;;2.30;;
32748;SDS011;19119;52.474;13.710;2023-06-22T11:09:15;3.45;;;2.30;;
32748;SDS011;19119;52.474;13.710;2023-06-22T11:11:50;3.85;;;2.20;;
32748;SDS011;19119;52.474;13.710;2023-06-22T11:14:18;5.18;;;2.65;;
32748;SDS011;19119;52.474;13.710;2023-06-22T11:16:44;3.95;;;2.38;;
32748;SDS011;19119;52.474;13.710;2023-06-22T11:19:09;3.40;;;2.40;;
32748;SDS011;19119;52.474;13.710;2023-06-22T11:21:34;5.38;;;3.00;;
32748;SDS011;19119;52.474;13.710;2023-06-22T11:24:00;4.30;;;2.83;;
32748;SDS011;19119;52.474;13.710;2023-06-22T11:26:25;3.03;;;2.35;;
32748;SDS011;19119;52.474;13.710;2023-06-22T11:28:54;3.35;;;2.60;;
32748;SDS011;19119;52.474;13.710;2023-06-22T11:31:20;4.85;;;2.42;;
32748;SDS011;19119;52.474;13.710;2023-06-22T11:33:45;4.07;;;2.70;;
32748;SDS011;19119;52.474;13.710;2023-06-22T11:36:12;5.05;;;2.35;;
32748;SDS011;19119;52.474;13.710;2023-06-22T11:38:39;5.20;;;2.45;;
32748;SDS011;19119;52.474;13.710;2023-06-22T11:41:05;4.25;;;2.60;;
32748;SDS011;19119;52.474;13.710;2023-06-22T11:43:31;3.78;;;2.45;;
32748;SDS011;19119;52.474;13.710;2023-06-22T11:45:56;3.05;;;2.20;;
32748;SDS011;19119;52.474;13.710;2023-06-22T11:48:22;4.43;;;2.72;;
32748;SDS011;19119;52.474;13.710;2023-06-22T11:50:51;5.40;;;2.85;;
32748;SDS011;19119;52.474;13.710;2023-06-22T11:53:16;4.00;;;2.47;;
32748;SDS011;19119;52.474;13.710;2023-06-22T11:55:42;3.50;;;2.25;;
32748;SDS011;19119;52.474;13.710;2023-06-22T11:58:08;3.55;;;2.33;;
32748;SDS011;19119;52.474;13.710;2023-06-22T12:00:34;3.95;;;2.53;;
32748;SDS011;19119;52.474;13.710;2023-06-22T12:03:00;4.00;;;2.25;;
32748;SDS011;19119;52.474;13.710;2023-06-22T12:05:25;5.70;;;2.60;;
32748;SDS011;19119;52.474;13.710;2023-06-22T12:07:53;3.63;;;2.30;;
32748;SDS011;19119;52.474;13.710;2023-06-22T12:10:19;4.68;;;2.22;;
32748;SDS011;19119;52.474;13.710;2023-06-22T12:12:45;3.28;;;2.10;;
32748;SDS011;19119;52.474;13.710;2023-06-22T12:15:11;3.58;;;2.42;;
32748;SDS011;19119;52.474;13.710;2023-06-22T12:17:37;4.28;;;2.90;;
32748;SDS011;19119;52.474;13.710;2023-06-22T12:20:02;3.92;;;2.17;;
32748;SDS011;19119;52.474;13.710;2023-06-22T12:22:32;5.45;;;2.60;;
32748;SDS011;19119;52.474;13.710;2023-06-22T12:24:58;3.67;;;2.38;;
32748;SDS011;19119;52.474;13.710;2023-06-22T12:27:23;4.20;;;2.78;;
32748;SDS011;19119;52.474;13.710;2023-06-22T12:29:49;5.30;;;3.00;;
32748;SDS011;19119;52.474;13.710;2023-06-22T12:32:15;4.70;;;3.25;;
32748;SDS011;19119;52.474;13.710;2023-06-22T12:34:44;3.35;;;2.55;;
32748;SDS011;19119;52.474;13.710;2023-06-22T12:37:09;5.18;;;3.60;;
32748;SDS011;19119;52.474;13.710;2023-06-22T12:39:35;5.07;;;3.08;;
32748;SDS011;19119;52.474;13.710;2023-06-22T12:42:01;7.65;;;3.22;;
32748;SDS011;19119;52.474;13.710;2023-06-22T12:44:27;8.23;;;2.70;;
32748;SDS011;19119;52.474;13.710;2023-06-22T12:46:53;3.65;;;2.70;;
32748;SDS011;19119;52.474;13.710;2023-06-22T12:49:19;5.93;;;2.90;;
32748;SDS011;19119;52.474;13.710;2023-06-22T12:51:44;5.55;;;3.10;;
32748;SDS011;19119;52.474;13.710;2023-06-22T12:54:10;5.47;;;3.08;;
32748;SDS011;19119;52.474;13.710;2023-06-22T12:56:36;5.35;;;2.60;;
32748;SDS011;19119;52.474;13.710;2023-06-22T12:59:03;6.13;;;2.95;;
32748;SDS011;19119;52.474;13.710;2023-06-22T13:01:29;5.72;;;2.80;;
32748;SDS011;19119;52.474;13.710;2023-06-22T13:03:59;5.03;;;3.00;;
32748;SDS011;19119;52.474;13.710;2023-06-22T13:06:30;3.80;;;2.92;;
32748;SDS011;19119;52.474;13.710;2023-06-22T13:08:56;4.65;;;3.08;;
32748;SDS011;19119;52.474;13.710;2023-06-22T13:11:22;6.40;;;3.50;;
32748;SDS011;19119;52.474;13.710;2023-06-22T13:13:47;4.63;;;3.10;;
32748;SDS011;19119;52.474;13.710;2023-06-22T13:16:13;8.60;;;3.22;;
32748;SDS011;19119;52.474;13.710;2023-06-22T13:18:38;5.85;;;3.25;;
32748;SDS011;19119;52.474;13.710;2023-06-22T13:21:04;5.18;;;3.28;;
32748;SDS011;19119;52.474;13.710;2023-06-22T13:23:29;4.45;;;2.70;;
32748;SDS011;19119;52.474;13.710;2023-06-22T13:25:56;5.35;;;2.80;;
32748;SDS011;19119;52.474;13.710;2023-06-22T13:28:26;5.15;;;3.08;;
32748;SDS011;19119;52.474;13.710;2023-06-22T13:30:51;5.15;;;2.95;;
32748;SDS011;19119;52.474;13.710;2023-06-22T13:33:19;4.38;;;2.72;;
32748;SDS011;19119;52.474;13.710;2023-06-22T13:35:45;5.03;;;3.33;;
32748;SDS011;19119;52.474;13.710;2023-06-22T13:38:10;3.97;;;2.83;;
32748;SDS011;19119;52.474;13.710;2023-06-22T13:40:36;4.93;;;2.90;;
32748;SDS011;19119;52.474;13.710;2023-06-22T13:43:05;5.32;;;3.10;;
32748;SDS011;19119;52.474;13.710;2023-06-22T13:45:31;4.43;;;3.03;;
32748;SDS011;19119;52.474;13.710;2023-06-22T13:47:57;6.00;;;2.97;;
32748;SDS011;19119;52.474;13.710;2023-06-22T13:50:23;4.30;;;2.90;;
32748;SDS011;19119;52.474;13.710;2023-06-22T13:52:48;7.65;;;2.83;;
32748;SDS011;19119;52.474;13.710;2023-06-22T13:55:14;5.43;;;3.60;;
32748;SDS011;19119;52.474;13.710;2023-06-22T13:57:40;5.88;;;3.38;;
32748;SDS011;19119;52.474;13.710;2023-06-22T14:00:06;4.43;;;2.92;;
32748;SDS011;19119;52.474;13.710;2023-06-22T14:02:33;6.60;;;3.17;;
32748;SDS011;19119;52.474;13.710;2023-06-22T14:05:00;3.70;;;3.15;;
32748;SDS011;19119;52.474;13.710;2023-06-22T14:07:27;4.97;;;2.97;;
32748;SDS011;19119;52.474;13.710;2023-06-22T14:09:52;5.03;;;3.40;;
32748;SDS011;19119;52.474;13.710;2023-06-22T14:12:18;7.20;;;3.63;;
32748;SDS011;19119;52.474;13.710;2023-06-22T14:14:44;5.03;;;2.95;;
32748;SDS011;19119;52.474;13.710;2023-06-22T14:17:09;4.90;;;3.42;;
32748;SDS011;19119;52.474;13.710;2023-06-22T14:19:35;3.95;;;3.33;;
32748;SDS011;19119;52.474;13.710;2023-06-22T14:22:01;4.53;;;3.47;;
32748;SDS011;19119;52.474;13.710;2023-06-22T14:24:26;5.28;;;3.40;;
32748;SDS011;19119;52.474;13.710;2023-06-22T14:26:52;4.72;;;2.97;;